Happy Dragon — PBXI — position and weather

sailwx.info

Track history (hours):
 
Tides and Currents Weather Stations Pressure Air Temp Water Temp Dewpoint Dewpoint Depression Visibility Wind Speed Wind Dir Waves Ship Positions

Happy Dragon

Last reported at 2018-Feb-04 15:01 UTC. Time now 2018-Feb-18 07:04 UTC.
Position S 27°37' E 153°48'.
Warning: this ship's position is 13 days out of date.

Length 157 m; draft 7.2 m.

Type: Cargo ship. MMSI: 246661000.

Date/timePositionNaut miles runAvg speedWind from/ knotsBaromVisibWave heightAir tempDewpointWater temp
2018-Feb-04 15:01S 27°37' E 153°48'012.2
2018-Feb-04 15:00S 27°37' E 153°48'612.2
2018-Feb-04 14:30S 27°43' E 153°48'612.0
2018-Feb-04 14:00S 27°49' E 153°47'611.7
2018-Feb-04 13:30S 27°55' E 153°47'611.5
2018-Feb-04 13:00S 28°01' E 153°46'611.4
2018-Feb-04 12:30S 28°06' E 153°46'611.1
2018-Feb-04 12:00S 28°12' E 153°45'611.2
2018-Feb-04 11:30S 28°17' E 153°45'23612.0
2018-Feb-03 15:53S 32°08' E 152°46'1813.1
2018-Feb-03 14:29S 32°25' E 152°39'613.2
2018-Feb-03 14:00S 32°31' E 152°36'612.5
2018-Feb-03 13:30S 32°37' E 152°34'612.4
2018-Feb-03 13:00S 32°43' E 152°31'612.3
2018-Feb-03 12:30S 32°48' E 152°29'612.4
2018-Feb-03 12:00S 32°54' E 152°26'612.1
2018-Feb-03 11:30S 32°60' E 152°23'612.2
2018-Feb-03 11:00S 33°05' E 152°20'35212.0
2018-Feb-02 05:40S 38°19' E 149°05'313.0
2018-Feb-02 05:28S 38°21' E 149°02'613.1
2018-Feb-02 05:00S 38°24' E 148°56'  
Track history (hours):
 
Tides and Currents Weather Stations Pressure Air Temp Water Temp Dewpoint Dewpoint Depression Visibility Wind Speed Wind Dir Waves Ship Positions

Happy Dragon

Last reported at 2018-Feb-04 15:01 UTC. Time now 2018-Feb-18 07:04 UTC.
Position S 27°37' E 153°48'.
Warning: this ship's position is 13 days out of date.

Length 157 m; draft 7.2 m.

Type: Cargo ship. MMSI: 246661000.

Date/timePositionNaut miles runAvg speedWind from/ knotsBaromVisibWave heightAir tempDewpointWater temp
2018-Feb-04 15:01S 27°37' E 153°48'012.2
2018-Feb-04 15:00S 27°37' E 153°48'612.2
2018-Feb-04 14:30S 27°43' E 153°48'612.0
2018-Feb-04 14:00S 27°49' E 153°47'611.7
2018-Feb-04 13:30S 27°55' E 153°47'611.5
2018-Feb-04 13:00S 28°01' E 153°46'611.4
2018-Feb-04 12:30S 28°06' E 153°46'611.1
2018-Feb-04 12:00S 28°12' E 153°45'611.2
2018-Feb-04 11:30S 28°17' E 153°45'23612.0
2018-Feb-03 15:53S 32°08' E 152°46'1813.1
2018-Feb-03 14:29S 32°25' E 152°39'613.2
2018-Feb-03 14:00S 32°31' E 152°36'612.5
2018-Feb-03 13:30S 32°37' E 152°34'612.4
2018-Feb-03 13:00S 32°43' E 152°31'612.3
2018-Feb-03 12:30S 32°48' E 152°29'612.4
2018-Feb-03 12:00S 32°54' E 152°26'612.1
2018-Feb-03 11:30S 32°60' E 152°23'612.2
2018-Feb-03 11:00S 33°05' E 152°20'35212.0
2018-Feb-02 05:40S 38°19' E 149°05'313.0
2018-Feb-02 05:28S 38°21' E 149°02'613.1
2018-Feb-02 05:00S 38°24' E 148°56'  

Dump ship's entire track history